Time,TemperatureF,DewpointF,PressureIn,WindDirection,WindDirectionDegrees,WindSpeedMPH,WindSpeedGustMPH,Humidity,HourlyPrecipIn,Conditions,Clouds,dailyrainin,SolarRadiationWatts/m^2,SoftwareType,DateUTC
2013-01-13 00:00:00,59.1,55.2,29.91,NNE,28,0.0,3.0,87,0.00,,---,0.00,0.00,VWS V14.00,2013-01-13 05:00:00,
2013-01-13 00:02:00,59.1,55.2,29.90,NNE,28,0.0,0.0,87,0.00,,---,0.00,0.00,VWS V14.00,2013-01-13 05:02:00,
2013-01-13 00:03:00,59.1,55.2,29.90,NNE,28,0.0,0.0,87,0.00,,---,0.00,0.00,VWS V14.00,2013-01-13 05:03:00,
2013-01-13 00:08:00,59.1,54.9,29.90,SE,136,0.0,5.0,86,0.00,,---,0.00,0.00,VWS V14.00,2013-01-13 05:08:00,
2013-01-13 00:13:00,59.1,54.6,29.90,SE,136,0.0,5.0,85,0.00,,---,0.00,0.00,VWS V14.00,2013-01-13 05:13:00,
2013-01-13 00:18:00,59.1,54.6,29.91,SE,136,0.0,5.0,85,0.00,,---,0.00,0.00,VWS V14.00,2013-01-13 05:18:00,
2013-01-13 00:23:00,59.1,54.3,29.90,SE,137,0.0,5.0,84,0.00,,---,0.00,0.00,VWS V14.00,2013-01-13 05:23:00,
2013-01-13 00:28:00,59.1,54.3,29.90,SE,137,0.0,5.0,84,0.00,,---,0.00,0.00,VWS V14.00,2013-01-13 05:28:00,
2013-01-13 00:30:00,59.0,54.2,29.90,SE,137,0.0,5.0,84,0.00,,---,0.00,0.00,VWS V14.00,2013-01-13 05:30:00,
2013-01-13 00:33:00,59.0,54.8,29.91,SE,137,0.0,0.0,86,0.00,,---,0.00,0.00,VWS V14.00,2013-01-13 05:33:00,
2013-01-13 00:38:00,58.9,54.1,29.91,SE,143,1.0,2.0,84,0.00,,---,0.00,0.00,VWS V14.00,2013-01-13 05:38:00,
2013-01-13 00:43:00,58.9,54.1,29.90,SE,143,0.0,2.0,84,0.00,,---,0.00,0.00,VWS V14.00,2013-01-13 05:43:00,
2013-01-13 00:48:00,58.8,54.0,29.90,SE,143,0.0,2.0,84,0.00,,---,0.00,0.00,VWS V14.00,2013-01-13 05:48:00,
2013-01-13 00:53:00,58.7,53.9,29.90,SE,143,0.0,2.0,84,0.00,,---,0.00,0.00,VWS V14.00,2013-01-13 05:53:00,
2013-01-13 00:58:00,58.4,53.6,29.90,SE,143,0.0,2.0,84,0.00,,---,0.00,0.00,VWS V14.00,2013-01-13 05:58:00,
2013-01-13 01:00:00,58.2,53.7,29.90,SE,143,0.0,2.0,85,0.00,,---,0.00,0.00,VWS V14.00,2013-01-13 06:00:00,
2013-01-13 01:03:00,58.2,53.7,29.90,SE,143,0.0,0.0,85,0.00,,---,0.00,0.00,VWS V14.00,2013-01-13 06:03:00,
2013-01-13 01:08:00,58.2,53.7,29.89,SE,143,0.0,0.0,85,0.00,,---,0.00,0.00,VWS V14.00,2013-01-13 06:08:00,
2013-01-13 01:13:00,58.2,53.7,29.88,SE,143,0.0,0.0,85,0.00,,---,0.00,0.00,VWS V14.00,2013-01-13 06:13:00,
2013-01-13 01:18:00,58.0,53.8,29.88,SE,143,0.0,0.0,86,0.00,,---,0.00,0.00,VWS V14.00,2013-01-13 06:18:00,
2013-01-13 01:23:00,58.1,53.6,29.88,SE,143,0.0,0.0,85,0.00,,---,0.00,0.00,VWS V14.00,2013-01-13 06:23:00,
2013-01-13 01:28:00,58.2,53.7,29.88,SE,143,0.0,0.0,85,0.00,,---,0.00,0.00,VWS V14.00,2013-01-13 06:28:00,
2013-01-13 01:30:00,58.2,53.7,29.88,SE,143,0.0,0.0,85,0.00,,---,0.00,0.00,VWS V14.00,2013-01-13 06:30:00,
2013-01-13 01:33:00,58.3,53.8,29.88,SE,143,0.0,0.0,85,0.00,,---,0.00,0.00,VWS V14.00,2013-01-13 06:33:00,
2013-01-13 01:38:00,58.6,54.1,29.88,SE,143,0.0,1.0,85,0.00,,---,0.00,0.00,VWS V14.00,2013-01-13 06:38:00,
2013-01-13 01:43:00,59.0,54.2,29.88,SE,143,0.0,1.0,84,0.00,,---,0.00,0.00,VWS V14.00,2013-01-13 06:43:00,
2013-01-13 01:48:00,59.2,54.0,29.88,SE,143,0.0,1.0,83,0.00,,---,0.00,0.00,VWS V14.00,2013-01-13 06:48:00,
2013-01-13 01:53:00,59.2,54.0,29.88,SE,143,0.0,1.0,83,0.00,,---,0.00,0.00,VWS V14.00,2013-01-13 06:53:00,
2013-01-13 01:58:00,58.9,53.4,29.89,SE,143,0.0,1.0,82,0.00,,---,0.00,0.00,VWS V14.00,2013-01-13 06:58:00,
2013-01-13 02:00:00,58.6,53.1,29.89,SE,143,0.0,1.0,82,0.00,,---,0.00,0.00,VWS V14.00,2013-01-13 07:00:00,
2013-01-13 02:03:00,58.3,52.8,29.89,SE,143,0.0,0.0,82,0.00,,---,0.00,0.00,VWS V14.00,2013-01-13 07:03:00,
2013-01-13 02:08:00,57.6,52.8,29.89,SE,143,0.0,0.0,84,0.00,,---,0.00,0.00,VWS V14.00,2013-01-13 07:08:00,
2013-01-13 02:13:00,57.0,52.5,29.88,SE,142,0.0,1.0,85,0.00,,---,0.00,0.00,VWS V14.00,2013-01-13 07:13:00,
2013-01-13 02:18:00,56.0,51.6,29.88,SE,142,0.0,1.0,85,0.00,,---,0.00,0.00,VWS V14.00,2013-01-13 07:18:00,
2013-01-13 02:23:00,55.4,51.6,29.88,SE,142,0.0,1.0,87,0.00,,---,0.00,0.00,VWS V14.00,2013-01-13 07:23:00,
2013-01-13 02:28:00,54.9,51.4,29.88,SE,142,0.0,1.0,88,0.00,,---,0.00,0.00,VWS V14.00,2013-01-13 07:28:00,
2013-01-13 02:30:00,54.6,51.1,29.88,SE,142,0.0,1.0,88,0.00,,---,0.00,0.00,VWS V14.00,2013-01-13 07:30:00,
2013-01-13 02:33:00,54.4,50.9,29.88,SE,142,0.0,0.0,88,0.00,,---,0.00,0.00,VWS V14.00,2013-01-13 07:33:00,
2013-01-13 02:38:00,53.9,50.7,29.88,SE,142,0.0,0.0,89,0.00,,---,0.00,0.00,VWS V14.00,2013-01-13 07:38:00,
2013-01-13 02:43:00,53.5,50.6,29.88,SE,142,0.0,0.0,90,0.00,,---,0.00,0.00,VWS V14.00,2013-01-13 07:43:00,
2013-01-13 02:48:00,53.2,50.7,29.87,SE,142,0.0,0.0,91,0.00,,---,0.00,0.00,VWS V14.00,2013-01-13 07:48:00,
2013-01-13 02:53:00,53.0,50.7,29.87,SE,142,0.0,0.0,92,0.00,,---,0.00,0.00,VWS V14.00,2013-01-13 07:53:00,
2013-01-13 02:58:00,52.6,50.3,29.87,SE,142,0.0,0.0,92,0.00,,---,0.00,0.00,VWS V14.00,2013-01-13 07:58:00,
2013-01-13 03:00:00,52.4,50.2,29.87,SE,142,0.0,0.0,92,0.00,,---,0.00,0.00,VWS V14.00,2013-01-13 08:00:00,
2013-01-13 03:03:00,52.4,50.4,29.86,SE,142,0.0,0.0,93,0.00,,---,0.00,0.00,VWS V14.00,2013-01-13 08:03:00,
2013-01-13 03:08:00,52.6,51.2,29.86,SE,142,0.0,1.0,95,0.00,,---,0.00,0.00,VWS V14.00,2013-01-13 08:08:00,
2013-01-13 03:13:00,53.4,52.3,29.86,SE,142,0.0,2.0,96,0.00,,---,0.00,0.00,VWS V14.00,2013-01-13 08:13:00,
2013-01-13 03:18:00,54.2,52.5,29.86,SE,142,0.0,2.0,94,0.00,,---,0.00,0.00,VWS V14.00,2013-01-13 08:18:00,
2013-01-13 03:23:00,54.5,52.2,29.86,SE,142,0.0,2.0,92,0.00,,---,0.00,0.00,VWS V14.00,2013-01-13 08:23:00,
2013-01-13 03:28:00,54.2,51.3,29.84,SE,142,0.0,2.0,90,0.00,,---,0.00,0.00,VWS V14.00,2013-01-13 08:28:00,
2013-01-13 03:30:00,53.8,50.6,29.84,SE,142,0.0,2.0,89,0.00,,---,0.00,0.00,VWS V14.00,2013-01-13 08:30:00,
2013-01-13 03:33:00,53.4,50.5,29.85,SE,142,0.0,0.0,90,0.00,,---,0.00,0.00,VWS V14.00,2013-01-13 08:33:00,
2013-01-13 03:38:00,52.7,49.8,29.85,SE,142,0.0,0.0,90,0.00,,---,0.00,0.00,VWS V14.00,2013-01-13 08:38:00,
2013-01-13 03:43:00,52.4,50.4,29.84,SE,142,0.0,0.0,93,0.00,,---,0.00,0.00,VWS V14.00,2013-01-13 08:43:00,
2013-01-13 03:48:00,52.4,50.4,29.84,SE,142,0.0,0.0,93,0.00,,---,0.00,0.00,VWS V14.00,2013-01-13 08:48:00,
2013-01-13 03:53:00,52.5,50.8,29.84,SE,142,0.0,0.0,94,0.00,,---,0.00,0.00,VWS V14.00,2013-01-13 08:53:00,
2013-01-13 03:58:00,52.6,51.2,29.84,SE,142,0.0,0.0,95,0.00,,---,0.00,0.00,VWS V14.00,2013-01-13 08:58:00,
2013-01-13 04:00:00,52.7,51.3,29.84,SE,142,0.0,1.0,95,0.00,,---,0.00,0.00,VWS V14.00,2013-01-13 09:00:00,
2013-01-13 04:03:00,53.0,51.6,29.84,SE,142,0.0,0.0,95,0.00,,---,0.00,0.00,VWS V14.00,2013-01-13 09:03:00,
2013-01-13 04:08:00,53.1,51.1,29.84,SE,142,0.0,1.0,93,0.00,,---,0.00,0.00,VWS V14.00,2013-01-13 09:08:00,
2013-01-13 04:13:00,52.8,50.8,29.83,SE,142,0.0,1.0,93,0.00,,---,0.00,0.00,VWS V14.00,2013-01-13 09:13:00,
2013-01-13 04:18:00,53.6,51.9,29.84,SE,144,0.0,2.0,94,0.00,,---,0.00,0.00,VWS V14.00,2013-01-13 09:18:00,
2013-01-13 04:23:00,54.0,52.0,29.83,SE,144,0.0,2.0,93,0.00,,---,0.00,0.00,VWS V14.00,2013-01-13 09:23:00,
2013-01-13 04:28:00,54.0,51.4,29.83,SE,144,0.0,2.0,91,0.00,,---,0.00,0.00,VWS V14.00,2013-01-13 09:28:00,
2013-01-13 04:30:00,54.1,52.1,29.83,SE,144,0.0,2.0,93,0.00,,---,0.00,0.00,VWS V14.00,2013-01-13 09:30:00,
2013-01-13 04:33:00,54.6,52.9,29.83,West,264,0.0,2.0,94,0.00,,---,0.00,0.00,VWS V14.00,2013-01-13 09:33:00,
2013-01-13 04:38:00,55.5,53.2,29.82,South,184,0.0,3.0,92,0.00,,---,0.00,0.00,VWS V14.00,2013-01-13 09:38:00,
2013-01-13 04:43:00,56.2,53.6,29.83,SSW,213,1.0,3.0,91,0.00,,---,0.00,0.00,VWS V14.00,2013-01-13 09:43:00,
2013-01-13 04:48:00,57.0,54.1,29.83,SSW,213,0.0,3.0,90,0.00,,---,0.00,0.00,VWS V14.00,2013-01-13 09:48:00,
2013-01-13 04:53:00,57.4,53.9,29.83,SW,214,0.0,3.0,88,0.00,,---,0.00,0.00,VWS V14.00,2013-01-13 09:53:00,
2013-01-13 04:58:00,58.0,54.2,29.82,West,271,1.0,5.0,87,0.00,,---,0.00,0.00,VWS V14.00,2013-01-13 09:58:00,
2013-01-13 05:00:00,58.1,54.3,29.82,West,266,2.0,5.0,87,0.00,,---,0.00,0.00,VWS V14.00,2013-01-13 10:00:00,
2013-01-13 05:03:00,58.4,54.5,29.82,West,265,2.0,3.0,87,0.00,,---,0.00,0.00,VWS V14.00,2013-01-13 10:03:00,
2013-01-13 05:08:00,59.1,54.6,29.83,West,261,3.0,4.0,85,0.00,,---,0.00,0.00,VWS V14.00,2013-01-13 10:08:00,
2013-01-13 05:13:00,59.5,55.0,29.83,West,261,0.0,4.0,85,0.00,,---,0.00,0.00,VWS V14.00,2013-01-13 10:13:00,
2013-01-13 05:18:00,59.7,54.9,29.83,West,261,0.0,4.0,84,0.00,,---,0.00,0.00,VWS V14.00,2013-01-13 10:18:00,
2013-01-13 05:23:00,59.8,55.0,29.83,West,262,2.0,4.0,84,0.00,,---,0.00,0.00,VWS V14.00,2013-01-13 10:23:00,
2013-01-13 05:28:00,60.1,55.3,29.83,West,262,0.0,4.0,84,0.00,,---,0.00,0.00,VWS V14.00,2013-01-13 10:28:00,
2013-01-13 05:30:00,60.0,54.8,29.83,West,262,0.0,4.0,83,0.00,,---,0.00,0.00,VWS V14.00,2013-01-13 10:30:00,
2013-01-13 05:33:00,60.0,54.8,29.83,West,262,0.0,2.0,83,0.00,,---,0.00,0.00,VWS V14.00,2013-01-13 10:33:00,
2013-01-13 05:38:00,59.5,54.7,29.84,West,262,2.0,3.0,84,0.00,,---,0.00,0.00,VWS V14.00,2013-01-13 10:38:00,
2013-01-13 05:43:00,59.4,54.6,29.84,West,262,0.0,4.0,84,0.00,,---,0.00,0.00,VWS V14.00,2013-01-13 10:43:00,
2013-01-13 05:48:00,59.0,53.8,29.84,West,262,0.0,4.0,83,0.00,,---,0.00,0.00,VWS V14.00,2013-01-13 10:48:00,
2013-01-13 05:53:00,58.4,53.3,29.84,West,262,0.0,4.0,83,0.00,,---,0.00,0.00,VWS V14.00,2013-01-13 10:53:00,
2013-01-13 05:58:00,57.7,53.2,29.85,West,262,1.0,4.0,85,0.00,,---,0.00,0.00,VWS V14.00,2013-01-13 10:58:00,
2013-01-13 06:00:00,57.6,53.8,29.85,West,262,1.0,4.0,87,0.00,,---,0.00,0.00,VWS V14.00,2013-01-13 11:00:00,
2013-01-13 06:03:00,57.6,53.8,29.85,West,262,2.0,3.0,87,0.00,,---,0.00,0.00,VWS V14.00,2013-01-13 11:03:00,
2013-01-13 06:08:00,57.6,53.1,29.85,West,262,0.0,3.0,85,0.00,,---,0.00,0.00,VWS V14.00,2013-01-13 11:08:00,
2013-01-13 06:13:00,57.3,53.2,29.86,West,262,0.0,3.0,86,0.00,,---,0.00,0.00,VWS V14.00,2013-01-13 11:13:00,
2013-01-13 06:19:00,56.8,53.0,29.86,West,262,0.0,3.0,87,0.00,,---,0.00,0.00,VWS V14.00,2013-01-13 11:19:00,
2013-01-13 06:24:00,56.5,53.0,29.86,West,262,0.0,3.0,88,0.00,,---,0.00,0.00,VWS V14.00,2013-01-13 11:24:00,
2013-01-13 06:29:00,56.3,53.1,29.86,West,262,0.0,3.0,89,0.00,,---,0.00,0.00,VWS V14.00,2013-01-13 11:29:00,
2013-01-13 06:30:00,56.3,53.4,29.87,West,262,0.0,3.0,90,0.00,,---,0.00,0.00,VWS V14.00,2013-01-13 11:30:00,
2013-01-13 06:34:00,56.2,53.0,29.86,West,262,0.0,0.0,89,0.00,,---,0.00,0.00,VWS V14.00,2013-01-13 11:34:00,
2013-01-13 06:39:00,56.1,53.8,29.86,West,262,0.0,0.0,92,0.00,,---,0.00,0.00,VWS V14.00,2013-01-13 11:39:00,
2013-01-13 06:44:00,56.1,53.2,29.86,West,262,0.0,0.0,90,0.00,,---,0.00,0.00,VWS V14.00,2013-01-13 11:44:00,
2013-01-13 06:48:00,56.1,53.5,29.87,West,262,0.0,0.0,91,0.00,,---,0.00,0.00,VWS V14.00,2013-01-13 11:48:00,
2013-01-13 06:54:00,56.1,53.2,29.87,West,262,0.0,0.0,90,0.00,,---,0.00,0.00,VWS V14.00,2013-01-13 11:54:00,
2013-01-13 06:59:00,56.0,53.1,29.87,West,262,0.0,0.0,90,0.00,,---,0.00,0.00,VWS V14.00,2013-01-13 11:59:00,
2013-01-13 07:00:00,56.0,53.1,29.87,West,262,0.0,0.0,90,0.00,,---,0.00,0.00,VWS V14.00,2013-01-13 12:00:00,
2013-01-13 07:04:00,56.1,53.2,29.87,West,262,0.0,0.0,90,0.00,,---,0.00,0.00,VWS V14.00,2013-01-13 12:04:00,
2013-01-13 07:09:00,56.3,53.4,29.87,West,262,0.0,0.0,90,0.00,,---,0.00,0.00,VWS V14.00,2013-01-13 12:09:00,
2013-01-13 07:14:00,56.5,53.6,29.87,WSW,257,0.0,0.0,90,0.00,,---,0.00,0.00,VWS V14.00,2013-01-13 12:14:00,
2013-01-13 07:19:00,56.5,53.3,29.87,WSW,257,0.0,0.0,89,0.00,,---,0.00,0.00,VWS V14.00,2013-01-13 12:19:00,
2013-01-13 07:24:00,56.5,53.3,29.88,WSW,257,0.0,0.0,89,0.00,,---,0.00,0.00,VWS V14.00,2013-01-13 12:24:00,
2013-01-13 07:29:00,56.5,53.3,29.88,WSW,257,0.0,1.0,89,0.00,,---,0.00,0.00,VWS V14.00,2013-01-13 12:29:00,
2013-01-13 07:30:00,56.5,53.3,29.88,WSW,257,0.0,1.0,89,0.00,,---,0.00,0.00,VWS V14.00,2013-01-13 12:30:00,
2013-01-13 07:34:00,56.6,53.1,29.88,SE,146,0.0,4.0,88,0.00,,---,0.00,0.00,VWS V14.00,2013-01-13 12:34:00,
2013-01-13 07:39:00,56.9,53.4,29.88,SW,232,1.0,4.0,88,0.00,,---,0.00,0.00,VWS V14.00,2013-01-13 12:39:00,
2013-01-13 07:44:00,57.3,53.5,29.88,SW,232,0.0,4.0,87,0.00,,---,0.00,16.00,VWS V14.00,2013-01-13 12:44:00,
2013-01-13 07:49:00,57.6,53.5,29.89,SSW,200,0.0,4.0,86,0.00,,---,0.00,26.00,VWS V14.00,2013-01-13 12:49:00,
2013-01-13 07:54:00,57.8,53.3,29.88,ESE,122,0.0,4.0,85,0.00,,---,0.00,35.00,VWS V14.00,2013-01-13 12:54:00,
2013-01-13 07:59:00,58.2,53.7,29.89,SW,220,0.0,4.0,85,0.00,,---,0.00,30.00,VWS V14.00,2013-01-13 12:59:00,
2013-01-13 08:00:00,58.3,53.8,29.89,SW,221,0.0,4.0,85,0.00,,---,0.00,33.00,VWS V14.00,2013-01-13 13:00:00,
2013-01-13 08:04:00,58.6,53.8,29.89,SE,138,0.0,2.0,84,0.00,,---,0.00,39.00,VWS V14.00,2013-01-13 13:04:00,
2013-01-13 08:09:00,59.0,53.8,29.89,West,263,0.0,3.0,83,0.00,,---,0.00,49.00,VWS V14.00,2013-01-13 13:09:00,
2013-01-13 08:14:00,59.5,54.3,29.89,West,259,0.0,3.0,83,0.00,,---,0.00,51.00,VWS V14.00,2013-01-13 13:14:00,
2013-01-13 08:19:00,59.9,54.4,29.90,SW,236,0.0,4.0,82,0.00,,---,0.00,69.00,VWS V14.00,2013-01-13 13:19:00,
2013-01-13 08:24:00,60.3,54.5,29.90,West,267,5.0,5.0,81,0.00,,---,0.00,100.00,VWS V14.00,2013-01-13 13:24:00,
2013-01-13 08:29:00,60.7,54.8,29.91,WSW,252,6.0,10.0,81,0.00,,---,0.00,113.00,VWS V14.00,2013-01-13 13:29:00,
2013-01-13 08:30:00,61.0,54.8,29.90,SW,219,0.0,10.0,80,0.00,,---,0.00,148.00,VWS V14.00,2013-01-13 13:30:00,
2013-01-13 08:34:00,61.3,55.1,29.91,WSW,249,0.0,5.0,80,0.00,,---,0.00,149.00,VWS V14.00,2013-01-13 13:34:00,
2013-01-13 08:39:00,61.6,55.0,29.91,SSE,153,0.0,5.0,79,0.00,,---,0.00,118.00,VWS V14.00,2013-01-13 13:39:00,
2013-01-13 08:44:00,61.9,55.3,29.92,SW,235,0.0,5.0,79,0.00,,---,0.00,40.00,VWS V14.00,2013-01-13 13:44:00,
2013-01-13 08:49:00,62.0,54.7,29.92,SSW,194,2.0,6.0,77,0.00,,---,0.00,70.00,VWS V14.00,2013-01-13 13:49:00,
2013-01-13 08:54:00,62.1,54.8,29.92,SE,136,0.0,6.0,77,0.00,,---,0.00,56.00,VWS V14.00,2013-01-13 13:54:00,
2013-01-13 08:59:00,62.2,54.9,29.92,WSW,243,3.0,7.0,77,0.00,,---,0.00,62.00,VWS V14.00,2013-01-13 13:59:00,
2013-01-13 09:00:00,62.3,55.0,29.92,SW,232,0.0,7.0,77,0.00,,---,0.00,58.00,VWS V14.00,2013-01-13 14:00:00,
2013-01-13 09:04:00,62.3,55.0,29.92,SW,223,0.0,3.0,77,0.00,,---,0.00,56.00,VWS V14.00,2013-01-13 14:04:00,
2013-01-13 09:09:00,62.5,54.8,29.93,SSW,199,0.0,4.0,76,0.00,,---,0.00,51.00,VWS V14.00,2013-01-13 14:09:00,
2013-01-13 09:14:00,62.6,54.9,29.93,SSW,207,1.0,4.0,76,0.00,,---,0.00,70.00,VWS V14.00,2013-01-13 14:14:00,
2013-01-13 09:19:00,62.7,55.0,29.93,SSE,164,0.0,7.0,76,0.00,,---,0.00,84.00,VWS V14.00,2013-01-13 14:19:00,
2013-01-13 09:24:00,62.9,55.2,29.92,SE,146,0.0,7.0,76,0.00,,---,0.00,125.00,VWS V14.00,2013-01-13 14:24:00,
2013-01-13 09:30:00,63.2,55.5,29.93,East,94,0.0,7.0,76,0.00,,---,0.00,113.00,VWS V14.00,2013-01-13 14:30:00,
2013-01-13 09:35:00,63.5,55.1,29.92,SSW,202,2.0,6.0,74,0.00,,---,0.00,72.00,VWS V14.00,2013-01-13 14:35:00,
2013-01-13 09:40:00,63.9,55.5,29.93,SSW,209,1.0,6.0,74,0.00,,---,0.00,65.00,VWS V14.00,2013-01-13 14:40:00,
2013-01-13 09:45:00,64.0,55.2,29.93,SSE,155,0.0,9.0,73,0.00,,---,0.00,113.00,VWS V14.00,2013-01-13 14:45:00,
2013-01-13 09:50:00,64.3,55.5,29.93,WSW,240,4.0,9.0,73,0.00,,---,0.00,74.00,VWS V14.00,2013-01-13 14:50:00,
2013-01-13 09:55:00,64.5,55.3,29.93,South,171,1.0,9.0,72,0.00,,---,0.00,86.00,VWS V14.00,2013-01-13 14:55:00,
2013-01-13 10:00:00,64.6,55.4,29.93,SSE,162,0.0,9.0,72,0.00,,---,0.00,81.00,VWS V14.00,2013-01-13 15:00:00,
2013-01-13 10:05:00,64.6,55.8,29.93,WNW,286,1.0,2.0,73,0.00,,---,0.00,76.00,VWS V14.00,2013-01-13 15:05:00,
2013-01-13 10:10:00,64.7,55.9,29.93,West,268,0.0,5.0,73,0.00,,---,0.00,79.00,VWS V14.00,2013-01-13 15:10:00,
2013-01-13 10:15:00,64.7,55.5,29.93,WSW,237,2.0,5.0,72,0.00,,---,0.00,83.00,VWS V14.00,2013-01-13 15:15:00,
2013-01-13 10:20:00,64.7,55.5,29.93,SW,224,2.0,5.0,72,0.00,,---,0.00,56.00,VWS V14.00,2013-01-13 15:20:00,
2013-01-13 10:25:00,64.8,55.6,29.93,WSW,237,0.0,6.0,72,0.00,,---,0.00,65.00,VWS V14.00,2013-01-13 15:25:00,
2013-01-13 10:30:00,64.8,56.0,29.93,WSW,258,1.0,6.0,73,0.00,,---,0.00,72.00,VWS V14.00,2013-01-13 15:30:00,
2013-01-13 10:35:00,64.8,55.6,29.93,SW,234,0.0,4.0,72,0.00,,---,0.00,62.00,VWS V14.00,2013-01-13 15:35:00,
2013-01-13 10:40:00,64.9,55.7,29.93,WSW,254,1.0,5.0,72,0.00,,---,0.00,60.00,VWS V14.00,2013-01-13 15:40:00,
2013-01-13 10:45:00,64.9,55.7,29.93,SSW,208,0.0,5.0,72,0.00,,---,0.00,100.00,VWS V14.00,2013-01-13 15:45:00,
2013-01-13 10:50:00,65.0,55.8,29.93,WSW,248,6.0,7.0,72,0.00,,---,0.00,116.00,VWS V14.00,2013-01-13 15:50:00,
2013-01-13 10:55:00,65.1,56.2,29.93,WSW,237,0.0,7.0,73,0.00,,---,0.00,97.00,VWS V14.00,2013-01-13 15:55:00,
2013-01-13 11:00:00,65.2,56.3,29.93,South,186,0.0,7.0,73,0.00,,---,0.00,83.00,VWS V14.00,2013-01-13 16:00:00,
2013-01-13 11:05:00,65.2,56.3,29.93,West,261,3.0,4.0,73,0.00,,---,0.00,35.00,VWS V14.00,2013-01-13 16:05:00,
2013-01-13 11:10:00,65.2,56.0,29.93,SW,229,1.0,6.0,72,0.00,,---,0.00,58.00,VWS V14.00,2013-01-13 16:10:00,
2013-01-13 11:15:00,65.2,56.0,29.92,West,276,14.0,15.0,72,0.00,,---,0.00,93.00,VWS V14.00,2013-01-13 16:15:00,
2013-01-13 11:20:00,65.4,56.5,29.92,SW,236,4.0,15.0,73,0.00,,---,0.00,193.00,VWS V14.00,2013-01-13 16:20:00,
2013-01-13 11:25:00,65.7,56.8,29.92,WSW,249,1.0,15.0,73,0.00,,---,0.00,183.00,VWS V14.00,2013-01-13 16:25:00,
2013-01-13 11:30:00,65.9,57.0,29.92,WSW,250,1.0,15.0,73,0.00,,---,0.00,172.00,VWS V14.00,2013-01-13 16:30:00,
2013-01-13 11:36:00,66.1,57.2,29.91,West,275,7.0,7.0,73,0.00,,---,0.00,243.00,VWS V14.00,2013-01-13 16:36:00,
2013-01-13 11:41:00,66.1,56.8,29.91,SW,225,7.0,15.0,72,0.00,,---,0.00,193.00,VWS V14.00,2013-01-13 16:41:00,
2013-01-13 11:46:00,66.2,56.5,29.91,WSW,250,3.0,16.0,71,0.00,,---,0.00,121.00,VWS V14.00,2013-01-13 16:46:00,
2013-01-13 11:51:00,66.1,56.8,29.91,South,191,0.0,16.0,72,0.00,,---,0.00,239.00,VWS V14.00,2013-01-13 16:51:00,
2013-01-13 11:56:00,66.3,56.6,29.90,WSW,238,4.0,20.0,71,0.00,,---,0.00,350.00,VWS V14.00,2013-01-13 16:56:00,
2013-01-13 12:00:00,66.5,56.8,29.90,SSE,165,1.0,20.0,71,0.00,,---,0.00,204.00,VWS V14.00,2013-01-13 17:00:00,
2013-01-13 12:01:00,66.5,56.8,29.90,SSE,165,4.0,20.0,71,0.00,,---,0.00,204.00,VWS V14.00,2013-01-13 17:01:00,
2013-01-13 12:06:00,66.5,56.8,29.90,South,190,4.0,15.0,71,0.00,,---,0.00,186.00,VWS V14.00,2013-01-13 17:06:00,
2013-01-13 12:11:00,66.6,57.3,29.89,South,186,1.0,15.0,72,0.00,,---,0.00,269.00,VWS V14.00,2013-01-13 17:11:00,
2013-01-13 12:16:00,66.9,57.2,29.88,South,175,0.0,15.0,71,0.00,,---,0.00,508.00,VWS V14.00,2013-01-13 17:16:00,
2013-01-13 12:21:00,67.3,57.2,29.89,SSW,213,2.0,15.0,70,0.00,,---,0.00,181.00,VWS V14.00,2013-01-13 17:21:00,
2013-01-13 12:26:00,67.2,57.1,29.88,SSW,204,1.0,15.0,70,0.00,,---,0.00,230.00,VWS V14.00,2013-01-13 17:26:00,
2013-01-13 12:30:00,67.1,57.0,29.88,WNW,291,2.0,15.0,70,0.00,,---,0.00,322.00,VWS V14.00,2013-01-13 17:30:00,
2013-01-13 12:31:00,67.1,57.0,29.88,West,281,4.0,5.0,70,0.00,,---,0.00,322.00,VWS V14.00,2013-01-13 17:31:00,
2013-01-13 12:36:00,67.2,57.5,29.88,WSW,239,0.0,7.0,71,0.00,,---,0.00,322.00,VWS V14.00,2013-01-13 17:36:00,
2013-01-13 12:41:00,67.3,57.6,29.87,WSW,242,2.0,13.0,71,0.00,,---,0.00,236.00,VWS V14.00,2013-01-13 17:41:00,
2013-01-13 12:46:00,67.2,57.1,29.87,NW,306,5.0,13.0,70,0.00,,---,0.00,214.00,VWS V14.00,2013-01-13 17:46:00,
2013-01-13 12:51:00,67.2,57.5,29.87,SW,229,2.0,13.0,71,0.00,,---,0.00,327.00,VWS V14.00,2013-01-13 17:51:00,
2013-01-13 12:56:00,67.4,57.7,29.87,South,191,0.0,13.0,71,0.00,,---,0.00,241.00,VWS V14.00,2013-01-13 17:56:00,
2013-01-13 13:00:00,67.4,57.3,29.86,WSW,252,0.0,13.0,70,0.00,,---,0.00,221.00,VWS V14.00,2013-01-13 18:00:00,
2013-01-13 13:01:00,67.5,57.4,29.86,West,271,6.0,6.0,70,0.00,,---,0.00,220.00,VWS V14.00,2013-01-13 18:01:00,
2013-01-13 13:06:00,67.3,57.2,29.86,SSW,213,0.0,13.0,70,0.00,,---,0.00,318.00,VWS V14.00,2013-01-13 18:06:00,
2013-01-13 13:11:00,67.5,58.2,29.85,South,186,0.0,13.0,72,0.00,,---,0.00,526.00,VWS V14.00,2013-01-13 18:11:00,
2013-01-13 13:16:00,68.1,57.6,29.85,SSW,196,2.0,13.0,69,0.00,,---,0.00,253.00,VWS V14.00,2013-01-13 18:16:00,
2013-01-13 13:22:00,68.2,58.0,29.84,SSW,201,2.0,13.0,70,0.00,,---,0.00,313.00,VWS V14.00,2013-01-13 18:22:00,
2013-01-13 13:27:00,68.2,58.0,29.84,South,178,5.0,13.0,70,0.00,,---,0.00,480.00,VWS V14.00,2013-01-13 18:27:00,
2013-01-13 13:30:00,68.3,57.8,29.84,SSE,148,4.0,13.0,69,0.00,,---,0.00,325.00,VWS V14.00,2013-01-13 18:30:00,
2013-01-13 13:32:00,68.3,57.3,29.84,SW,233,3.0,4.0,68,0.00,,---,0.00,285.00,VWS V14.00,2013-01-13 18:32:00,
2013-01-13 13:37:00,68.4,57.4,29.84,SW,226,1.0,7.0,68,0.00,,---,0.00,195.00,VWS V14.00,2013-01-13 18:37:00,
2013-01-13 13:42:00,68.4,57.4,29.84,South,182,0.0,7.0,68,0.00,,---,0.00,255.00,VWS V14.00,2013-01-13 18:42:00,
2013-01-13 13:47:00,68.4,58.2,29.85,SW,223,0.0,7.0,70,0.00,,---,0.00,207.00,VWS V14.00,2013-01-13 18:47:00,
2013-01-13 13:52:00,68.4,57.4,29.85,South,184,3.0,8.0,68,0.00,,---,0.00,163.00,VWS V14.00,2013-01-13 18:52:00,
2013-01-13 13:57:00,68.1,57.2,29.84,SSE,163,1.0,8.0,68,0.00,,---,0.00,172.00,VWS V14.00,2013-01-13 18:57:00,
2013-01-13 14:00:00,67.9,57.0,29.85,West,270,1.0,8.0,68,0.00,,---,0.00,146.00,VWS V14.00,2013-01-13 19:00:00,
2013-01-13 14:02:00,67.8,56.9,29.84,SW,229,2.0,7.0,68,0.00,,---,0.00,141.00,VWS V14.00,2013-01-13 19:02:00,
2013-01-13 14:07:00,67.6,56.7,29.84,WSW,257,2.0,8.0,68,0.00,,---,0.00,167.00,VWS V14.00,2013-01-13 19:07:00,
2013-01-13 14:12:00,67.5,57.0,29.85,South,174,5.0,8.0,69,0.00,,---,0.00,190.00,VWS V14.00,2013-01-13 19:12:00,
2013-01-13 14:17:00,67.5,57.8,29.85,SW,227,0.0,8.0,71,0.00,,---,0.00,227.00,VWS V14.00,2013-01-13 19:17:00,
2013-01-13 14:22:00,67.6,57.5,29.85,SW,215,4.0,11.0,70,0.00,,---,0.00,186.00,VWS V14.00,2013-01-13 19:22:00,
2013-01-13 14:27:00,67.7,57.2,29.84,ESE,106,7.0,11.0,69,0.00,,---,0.00,146.00,VWS V14.00,2013-01-13 19:27:00,
2013-01-13 14:30:00,67.7,57.2,29.84,ESE,119,7.0,11.0,69,0.00,,---,0.00,146.00,VWS V14.00,2013-01-13 19:30:00,
2013-01-13 14:32:00,67.6,57.1,29.84,SSW,205,2.0,7.0,69,0.00,,---,0.00,151.00,VWS V14.00,2013-01-13 19:32:00,
2013-01-13 14:37:00,67.6,57.5,29.84,SSW,194,0.0,7.0,70,0.00,,---,0.00,162.00,VWS V14.00,2013-01-13 19:37:00,
2013-01-13 14:42:00,67.6,57.5,29.85,SSE,160,4.0,7.0,70,0.00,,---,0.00,169.00,VWS V14.00,2013-01-13 19:42:00,
2013-01-13 14:47:00,67.5,57.4,29.85,South,174,1.0,7.0,70,0.00,,---,0.00,148.00,VWS V14.00,2013-01-13 19:47:00,
2013-01-13 14:52:00,67.4,57.7,29.85,SSW,201,0.0,8.0,71,0.00,,---,0.00,91.00,VWS V14.00,2013-01-13 19:52:00,
2013-01-13 14:57:00,67.2,57.1,29.85,South,171,0.0,8.0,70,0.00,,---,0.00,95.00,VWS V14.00,2013-01-13 19:57:00,
2013-01-13 15:00:00,67.0,56.9,29.85,SW,215,4.0,9.0,70,0.00,,---,0.00,109.00,VWS V14.00,2013-01-13 20:00:00,
2013-01-13 15:02:00,66.9,56.8,29.85,SW,235,0.0,11.0,70,0.00,,---,0.00,97.00,VWS V14.00,2013-01-13 20:02:00,
2013-01-13 15:07:00,66.8,56.7,29.84,South,187,2.0,11.0,70,0.00,,---,0.00,95.00,VWS V14.00,2013-01-13 20:07:00,
2013-01-13 15:12:00,66.7,56.2,29.86,SSW,193,3.0,12.0,69,0.00,,---,0.00,63.00,VWS V14.00,2013-01-13 20:12:00,
2013-01-13 15:18:00,66.6,56.5,29.85,South,183,2.0,12.0,70,0.00,,---,0.00,67.00,VWS V14.00,2013-01-13 20:18:00,
2013-01-13 15:23:00,66.5,56.4,29.85,SSE,159,5.0,12.0,70,0.00,,---,0.00,104.00,VWS V14.00,2013-01-13 20:23:00,
2013-01-13 15:28:00,66.5,56.4,29.85,SSW,198,0.0,12.0,70,0.00,,---,0.00,139.00,VWS V14.00,2013-01-13 20:28:00,
2013-01-13 15:30:00,66.5,56.8,29.86,WSW,245,0.0,12.0,71,0.00,,---,0.00,139.00,VWS V14.00,2013-01-13 20:30:00,
2013-01-13 15:33:00,66.5,56.8,29.85,SW,225,1.0,4.0,71,0.00,,---,0.00,118.00,VWS V14.00,2013-01-13 20:33:00,
2013-01-13 15:38:00,66.5,56.4,29.85,WSW,241,0.0,4.0,70,0.00,,---,0.00,86.00,VWS V14.00,2013-01-13 20:38:00,
2013-01-13 15:43:00,66.5,56.8,29.85,ENE,69,0.0,4.0,71,0.00,,---,0.00,105.00,VWS V14.00,2013-01-13 20:43:00,
2013-01-13 15:48:00,66.4,56.7,29.86,SW,220,1.0,4.0,71,0.00,,---,0.00,63.00,VWS V14.00,2013-01-13 20:48:00,
2013-01-13 15:53:00,66.4,56.7,29.86,SSW,196,1.0,5.0,71,0.00,,---,0.00,65.00,VWS V14.00,2013-01-13 20:53:00,
2013-01-13 15:58:00,66.4,56.7,29.86,SSW,204,3.0,9.0,71,0.00,,---,0.00,63.00,VWS V14.00,2013-01-13 20:58:00,
2013-01-13 16:00:00,66.3,56.6,29.86,SE,130,4.0,9.0,71,0.00,,---,0.00,56.00,VWS V14.00,2013-01-13 21:00:00,
2013-01-13 16:03:00,66.3,57.0,29.85,SSW,213,2.0,4.0,72,0.00,,---,0.00,54.00,VWS V14.00,2013-01-13 21:03:00,
2013-01-13 16:08:00,66.2,56.9,29.85,West,259,5.0,7.0,72,0.00,,---,0.00,46.00,VWS V14.00,2013-01-13 21:08:00,
2013-01-13 16:13:00,66.0,56.3,29.85,SSW,210,3.0,7.0,71,0.00,,---,0.00,37.00,VWS V14.00,2013-01-13 21:13:00,
2013-01-13 16:18:00,65.9,56.6,29.85,SE,136,0.0,7.0,72,0.00,,---,0.00,42.00,VWS V14.00,2013-01-13 21:18:00,
2013-01-13 16:23:00,65.9,56.2,29.85,SSW,198,1.0,7.0,71,0.00,,---,0.00,44.00,VWS V14.00,2013-01-13 21:23:00,
2013-01-13 16:28:00,65.8,56.5,29.85,SSE,157,0.0,7.0,72,0.00,,---,0.00,28.00,VWS V14.00,2013-01-13 21:28:00,
2013-01-13 16:30:00,65.8,56.2,29.84,SSE,163,4.0,7.0,71,0.00,,---,0.00,23.00,VWS V14.00,2013-01-13 21:30:00,
2013-01-13 16:33:00,65.8,56.2,29.83,SSE,147,0.0,5.0,71,0.00,,---,0.00,21.00,VWS V14.00,2013-01-13 21:33:00,
2013-01-13 16:38:00,65.8,56.2,29.83,SSW,203,2.0,7.0,71,0.00,,---,0.00,14.00,VWS V14.00,2013-01-13 21:38:00,
2013-01-13 16:43:00,65.7,56.0,29.83,South,170,2.0,7.0,71,0.00,,---,0.00,14.00,VWS V14.00,2013-01-13 21:43:00,
2013-01-13 16:48:00,65.7,56.0,29.83,SSW,192,3.0,7.0,71,0.00,,---,0.00,11.00,VWS V14.00,2013-01-13 21:48:00,
2013-01-13 16:53:00,65.5,55.9,29.83,South,173,0.0,7.0,71,0.00,,---,0.00,9.00,VWS V14.00,2013-01-13 21:53:00,
2013-01-13 16:58:00,65.4,55.8,29.83,SSW,194,1.0,8.0,71,0.00,,---,0.00,11.00,VWS V14.00,2013-01-13 21:58:00,
2013-01-13 17:00:00,65.4,55.8,29.83,SSW,208,0.0,8.0,71,0.00,,---,0.00,11.00,VWS V14.00,2013-01-13 22:00:00,
2013-01-13 17:03:00,65.3,55.7,29.83,SE,129,1.0,6.0,71,0.00,,---,0.00,9.00,VWS V14.00,2013-01-13 22:03:00,
2013-01-13 17:08:00,65.3,55.7,29.82,SSW,195,2.0,7.0,71,0.00,,---,0.00,5.00,VWS V14.00,2013-01-13 22:08:00,
2013-01-13 17:13:00,65.3,55.7,29.83,West,277,4.0,10.0,71,0.00,,---,0.00,0.00,VWS V14.00,2013-01-13 22:13:00,
2013-01-13 17:18:00,65.2,55.6,29.83,SW,223,5.0,10.0,71,0.00,,---,0.00,0.00,VWS V14.00,2013-01-13 22:18:00,
2013-01-13 17:23:00,65.0,55.4,29.83,SE,142,2.0,10.0,71,0.00,,---,0.00,0.00,VWS V14.00,2013-01-13 22:23:00,
2013-01-13 17:28:00,64.9,55.3,29.83,West,267,2.0,10.0,71,0.00,,---,0.00,0.00,VWS V14.00,2013-01-13 22:28:00,
2013-01-13 17:30:00,64.9,55.3,29.83,West,261,0.0,10.0,71,0.00,,---,0.00,0.00,VWS V14.00,2013-01-13 22:30:00,
2013-01-13 17:33:00,64.8,55.6,29.83,SSW,200,0.0,4.0,72,0.00,,---,0.00,0.00,VWS V14.00,2013-01-13 22:33:00,
2013-01-13 17:38:00,64.7,55.5,29.84,SSW,213,0.0,5.0,72,0.00,,---,0.00,0.00,VWS V14.00,2013-01-13 22:38:00,
2013-01-13 17:43:00,64.6,55.0,29.83,South,169,0.0,8.0,71,0.00,,---,0.00,0.00,VWS V14.00,2013-01-13 22:43:00,
2013-01-13 17:48:00,64.6,55.0,29.84,SW,219,2.0,8.0,71,0.00,,---,0.00,0.00,VWS V14.00,2013-01-13 22:48:00,
2013-01-13 17:53:00,64.5,55.3,29.84,SW,227,0.0,8.0,72,0.00,,---,0.00,0.00,VWS V14.00,2013-01-13 22:53:00,
2013-01-13 17:59:00,64.5,55.3,29.84,SE,138,0.0,8.0,72,0.00,,---,0.00,0.00,VWS V14.00,2013-01-13 22:59:00,
2013-01-13 18:00:00,64.5,54.9,29.84,SW,214,3.0,11.0,71,0.00,,---,0.00,0.00,VWS V14.00,2013-01-13 23:00:00,
2013-01-13 18:04:00,64.5,54.9,29.84,South,172,1.0,6.0,71,0.00,,---,0.00,0.00,VWS V14.00,2013-01-13 23:04:00,
2013-01-13 18:09:00,64.7,55.1,29.84,SSE,159,4.0,7.0,71,0.00,,---,0.00,0.00,VWS V14.00,2013-01-13 23:09:00,
2013-01-13 18:14:00,64.7,55.1,29.84,SW,232,0.0,10.0,71,0.00,,---,0.00,0.00,VWS V14.00,2013-01-13 23:14:00,
2013-01-13 18:19:00,64.7,55.1,29.84,South,177,0.0,10.0,71,0.00,,---,0.00,0.00,VWS V14.00,2013-01-13 23:19:00,
2013-01-13 18:24:00,64.6,55.4,29.84,SW,222,1.0,10.0,72,0.00,,---,0.00,0.00,VWS V14.00,2013-01-13 23:24:00,
2013-01-13 18:29:00,64.6,55.0,29.84,South,187,4.0,10.0,71,0.00,,---,0.00,0.00,VWS V14.00,2013-01-13 23:29:00,
2013-01-13 18:30:00,64.6,55.0,29.84,SW,215,0.0,10.0,71,0.00,,---,0.00,0.00,VWS V14.00,2013-01-13 23:30:00,
2013-01-13 18:34:00,64.5,54.9,29.84,WSW,252,0.0,6.0,71,0.00,,---,0.00,0.00,VWS V14.00,2013-01-13 23:34:00,
2013-01-13 18:39:00,64.5,54.9,29.83,SE,142,4.0,6.0,71,0.00,,---,0.00,0.00,VWS V14.00,2013-01-13 23:39:00,
2013-01-13 18:44:00,64.5,54.9,29.84,South,172,0.0,6.0,71,0.00,,---,0.00,0.00,VWS V14.00,2013-01-13 23:44:00,
2013-01-13 18:49:00,64.4,54.8,29.84,WSW,244,7.0,11.0,71,0.00,,---,0.00,0.00,VWS V14.00,2013-01-13 23:49:00,
2013-01-13 18:54:00,64.6,55.0,29.84,WSW,258,4.0,11.0,71,0.00,,---,0.00,0.00,VWS V14.00,2013-01-13 23:54:00,
2013-01-13 18:59:00,64.8,55.2,29.84,West,269,4.0,11.0,71,0.00,,---,0.00,0.00,VWS V14.00,2013-01-13 23:59:00,
2013-01-13 19:00:00,64.9,55.3,29.84,WSW,239,6.0,11.0,71,0.00,,---,0.00,0.00,VWS V14.00,2013-01-14 00:00:00,
2013-01-13 19:04:00,65.0,55.0,29.84,WSW,250,3.0,8.0,70,0.00,,---,0.00,0.00,VWS V14.00,2013-01-14 00:04:00,
2013-01-13 19:09:00,65.0,55.0,29.85,WSW,248,0.0,8.0,70,0.00,,---,0.00,0.00,VWS V14.00,2013-01-14 00:09:00,
2013-01-13 19:14:00,65.1,55.1,29.85,West,266,3.0,8.0,70,0.00,,---,0.00,0.00,VWS V14.00,2013-01-14 00:14:00,
2013-01-13 19:19:00,64.9,54.9,29.84,West,273,1.0,8.0,70,0.00,,---,0.00,0.00,VWS V14.00,2013-01-14 00:19:00,
2013-01-13 19:24:00,64.8,55.2,29.84,WSW,249,0.0,8.0,71,0.00,,---,0.00,0.00,VWS V14.00,2013-01-14 00:24:00,
2013-01-13 19:29:00,64.7,55.1,29.85,WSW,254,2.0,8.0,71,0.00,,---,0.00,0.00,VWS V14.00,2013-01-14 00:29:00,
2013-01-13 19:30:00,64.6,55.0,29.84,WSW,257,1.0,8.0,71,0.00,,---,0.00,0.00,VWS V14.00,2013-01-14 00:30:00,
2013-01-13 19:34:00,64.6,54.6,29.84,WSW,246,3.0,4.0,70,0.00,,---,0.00,0.00,VWS V14.00,2013-01-14 00:34:00,
2013-01-13 19:39:00,64.5,54.9,29.84,WSW,246,0.0,4.0,71,0.00,,---,0.00,0.00,VWS V14.00,2013-01-14 00:39:00,
2013-01-13 19:44:00,64.4,54.8,29.85,WSW,247,0.0,4.0,71,0.00,,---,0.00,0.00,VWS V14.00,2013-01-14 00:44:00,
2013-01-13 19:49:00,64.3,54.7,29.84,WSW,245,0.0,4.0,71,0.00,,---,0.00,0.00,VWS V14.00,2013-01-14 00:49:00,
2013-01-13 19:54:00,64.3,54.7,29.84,WSW,244,1.0,4.0,71,0.00,,---,0.00,0.00,VWS V14.00,2013-01-14 00:54:00,
2013-01-13 19:59:00,64.4,54.8,29.83,WSW,244,0.0,4.0,71,0.00,,---,0.00,0.00,VWS V14.00,2013-01-14 00:59:00,
2013-01-13 20:00:00,64.3,54.7,29.83,WSW,244,0.0,4.0,71,0.00,,---,0.00,0.00,VWS V14.00,2013-01-14 01:00:00,
2013-01-13 20:04:00,64.2,54.6,29.83,WSW,244,0.0,0.0,71,0.00,,---,0.00,0.00,VWS V14.00,2013-01-14 01:04:00,
2013-01-13 20:09:00,64.0,54.8,29.84,WSW,244,0.0,0.0,72,0.00,,---,0.00,0.00,VWS V14.00,2013-01-14 01:09:00,
2013-01-13 20:14:00,63.7,54.5,29.84,WSW,244,0.0,0.0,72,0.00,,---,0.00,0.00,VWS V14.00,2013-01-14 01:14:00,
2013-01-13 20:19:00,63.5,54.3,29.83,WSW,244,0.0,0.0,72,0.00,,---,0.00,0.00,VWS V14.00,2013-01-14 01:19:00,
2013-01-13 20:24:00,63.4,54.6,29.83,WSW,244,0.0,0.0,73,0.00,,---,0.00,0.00,VWS V14.00,2013-01-14 01:24:00,
2013-01-13 20:29:00,63.2,54.4,29.83,WSW,244,0.0,0.0,73,0.00,,---,0.00,0.00,VWS V14.00,2013-01-14 01:29:00,
2013-01-13 20:30:00,63.2,54.4,29.83,WSW,244,0.0,0.0,73,0.00,,---,0.00,0.00,VWS V14.00,2013-01-14 01:30:00,
2013-01-13 20:34:00,63.2,54.4,29.83,WSW,244,0.0,0.0,73,0.00,,---,0.00,0.00,VWS V14.00,2013-01-14 01:34:00,
2013-01-13 20:39:00,62.8,54.8,29.84,WNW,290,2.0,5.0,75,0.00,,---,0.00,0.00,VWS V14.00,2013-01-14 01:39:00,
2013-01-13 20:44:00,62.4,55.1,29.84,NW,313,2.0,5.0,77,0.00,,---,0.00,0.00,VWS V14.00,2013-01-14 01:44:00,
2013-01-13 20:49:00,61.9,55.3,29.84,NW,305,1.0,5.0,79,0.00,,---,0.01,0.00,VWS V14.00,2013-01-14 01:49:00,
2013-01-13 20:54:00,61.4,55.2,29.84,NW,305,4.0,6.0,80,0.00,,---,0.01,0.00,VWS V14.00,2013-01-14 01:54:00,
2013-01-13 20:59:00,61.2,55.3,29.85,WNW,300,4.0,7.0,81,0.00,,---,0.01,0.00,VWS V14.00,2013-01-14 01:59:00,
2013-01-13 21:00:00,61.2,55.7,29.86,WNW,300,4.0,7.0,82,0.00,,---,0.01,0.00,VWS V14.00,2013-01-14 02:00:00,
2013-01-13 21:04:00,60.9,55.7,29.86,WNW,300,4.0,6.0,83,0.00,,---,0.01,0.00,VWS V14.00,2013-01-14 02:04:00,
2013-01-13 21:10:00,60.5,56.0,29.86,West,279,4.0,7.0,85,0.00,,---,0.01,0.00,VWS V14.00,2013-01-14 02:10:00,
2013-01-13 21:15:00,60.1,56.2,29.86,West,273,1.0,7.0,87,0.00,,---,0.01,0.00,VWS V14.00,2013-01-14 02:15:00,
2013-01-13 21:20:00,59.7,56.2,29.86,West,273,0.0,7.0,88,0.32,,---,0.03,0.00,VWS V14.00,2013-01-14 02:20:00,
2013-01-13 21:25:00,59.3,56.4,29.86,West,276,2.0,7.0,90,0.11,,---,0.03,0.00,VWS V14.00,2013-01-14 02:25:00,
2013-01-13 21:30:00,58.9,56.3,29.87,WSW,251,3.0,7.0,91,0.08,,---,0.04,0.00,VWS V14.00,2013-01-14 02:30:00,
2013-01-13 21:35:00,58.6,56.3,29.86,WSW,258,0.0,4.0,92,0.09,,---,0.05,0.00,VWS V14.00,2013-01-14 02:35:00,
2013-01-13 21:40:00,58.4,56.4,29.86,WSW,258,0.0,4.0,93,0.09,,---,0.05,0.00,VWS V14.00,2013-01-14 02:40:00,
2013-01-13 21:45:00,58.3,56.3,29.86,WSW,258,0.0,4.0,93,0.05,,---,0.05,0.00,VWS V14.00,2013-01-14 02:45:00,
2013-01-13 21:50:00,58.1,56.1,29.86,WSW,258,0.0,4.0,93,0.04,,---,0.06,0.00,VWS V14.00,2013-01-14 02:50:00,
2013-01-13 21:55:00,58.0,56.3,29.86,WSW,258,0.0,4.0,94,0.16,,---,0.07,0.00,VWS V14.00,2013-01-14 02:55:00,
2013-01-13 22:00:00,57.9,56.2,29.86,WSW,258,0.0,4.0,94,0.08,,---,0.08,0.00,VWS V14.00,2013-01-14 03:00:00,
2013-01-13 22:05:00,57.8,56.1,29.86,WSW,258,0.0,1.0,94,0.08,,---,0.08,0.00,VWS V14.00,2013-01-14 03:05:00,
2013-01-13 22:10:00,57.6,56.2,29.85,WSW,258,0.0,2.0,95,0.06,,---,0.09,0.00,VWS V14.00,2013-01-14 03:10:00,
2013-01-13 22:15:00,57.5,56.1,29.85,West,259,0.0,2.0,95,0.05,,---,0.09,0.00,VWS V14.00,2013-01-14 03:15:00,
2013-01-13 22:20:00,57.5,56.1,29.86,West,259,0.0,2.0,95,0.05,,---,0.09,0.00,VWS V14.00,2013-01-14 03:20:00,
2013-01-13 22:25:00,57.4,56.3,29.85,West,259,0.0,2.0,96,0.04,,---,0.10,0.00,VWS V14.00,2013-01-14 03:25:00,
2013-01-13 22:30:00,57.4,56.3,29.85,West,259,0.0,2.0,96,0.18,,---,0.11,0.00,VWS V14.00,2013-01-14 03:30:00,
2013-01-13 22:35:00,57.3,56.2,29.86,West,259,0.0,0.0,96,0.09,,---,0.12,0.00,VWS V14.00,2013-01-14 03:35:00,
2013-01-13 22:40:00,57.3,56.2,29.85,West,259,0.0,0.0,96,0.11,,---,0.13,0.00,VWS V14.00,2013-01-14 03:40:00,
2013-01-13 22:45:00,57.3,56.2,29.86,West,259,0.0,0.0,96,0.10,,---,0.13,0.00,VWS V14.00,2013-01-14 03:45:00,
2013-01-13 22:50:00,57.3,56.2,29.87,West,259,0.0,1.0,96,0.06,,---,0.13,0.00,VWS V14.00,2013-01-14 03:50:00,
2013-01-13 22:55:00,57.3,56.2,29.87,WSW,258,0.0,1.0,96,0.04,,---,0.14,0.00,VWS V14.00,2013-01-14 03:55:00,
2013-01-13 23:00:00,57.3,56.2,29.87,West,259,0.0,4.0,96,0.04,,---,0.15,0.00,VWS V14.00,2013-01-14 04:00:00,
2013-01-13 23:05:00,57.3,56.2,29.87,West,259,0.0,0.0,96,0.12,,---,0.15,0.00,VWS V14.00,2013-01-14 04:05:00,
2013-01-13 23:10:00,57.3,56.2,29.87,West,259,0.0,0.0,96,0.06,,---,0.15,0.00,VWS V14.00,2013-01-14 04:10:00,
2013-01-13 23:15:00,57.2,56.1,29.87,West,259,0.0,0.0,96,0.04,,---,0.15,0.00,VWS V14.00,2013-01-14 04:15:00,
2013-01-13 23:20:00,57.2,56.4,29.87,West,259,0.0,0.0,97,0.00,,---,0.15,0.00,VWS V14.00,2013-01-14 04:20:00,
2013-01-13 23:25:00,57.2,56.4,29.87,West,259,0.0,0.0,97,0.00,,---,0.15,0.00,VWS V14.00,2013-01-14 04:25:00,
2013-01-13 23:30:00,57.2,56.4,29.88,WSW,248,0.0,2.0,97,0.00,,---,0.16,0.00,VWS V14.00,2013-01-14 04:30:00,
2013-01-13 23:31:00,57.3,56.5,29.88,WSW,248,0.0,2.0,97,0.00,,---,0.16,0.00,VWS V14.00,2013-01-14 04:31:00,
2013-01-13 23:36:00,57.3,56.5,29.87,WSW,248,0.0,0.0,97,0.00,,---,0.16,0.00,VWS V14.00,2013-01-14 04:36:00,
2013-01-13 23:41:00,57.3,56.5,29.88,WSW,248,0.0,0.0,97,0.07,,---,0.17,0.00,VWS V14.00,2013-01-14 04:41:00,
2013-01-13 23:46:00,57.3,56.5,29.88,WSW,248,0.0,0.0,97,0.07,,---,0.17,0.00,VWS V14.00,2013-01-14 04:46:00,
2013-01-13 23:51:00,57.2,56.4,29.85,South,174,2.0,6.0,97,0.05,,---,0.18,0.00,VWS V14.00,2013-01-14 04:51:00,
2013-01-13 23:56:00,57.0,56.2,29.86,East,94,0.0,6.0,97,0.13,,---,0.19,0.00,VWS V14.00,2013-01-14 04:56:00,